sensor_id;sensor_type;location;lat;lon;timestamp;noise_LAeq;noise_LA_min;noise_LA_max;noise_LA01;noise_LA95
71030;Laerm;63723;51.436;5.976;2023-08-30T00:00:06;70.71;67.17;73.49;;
71030;Laerm;63723;51.436;5.976;2023-08-30T00:00:18;70.58;66.96;73.17;;
71030;Laerm;63723;51.436;5.976;2023-08-30T00:00:28;70.67;66.19;73.31;;
71030;Laerm;63723;51.436;5.976;2023-08-30T00:00:39;70.51;65.73;73.32;;
71030;Laerm;63723;51.436;5.976;2023-08-30T00:00:49;70.43;65.60;73.37;;
71030;Laerm;63723;51.436;5.976;2023-08-30T00:00:59;70.63;66.83;73.32;;
71030;Laerm;63723;51.436;5.976;2023-08-30T00:01:10;70.51;64.84;72.69;;
71030;Laerm;63723;51.436;5.976;2023-08-30T00:01:21;70.57;64.84;73.59;;
71030;Laerm;63723;51.436;5.976;2023-08-30T00:01:31;69.17;57.20;72.98;;
71030;Laerm;63723;51.436;5.976;2023-08-30T00:01:41;70.32;65.14;72.92;;
71030;Laerm;63723;51.436;5.976;2023-08-30T00:01:52;70.26;65.93;72.88;;
71030;Laerm;63723;51.436;5.976;2023-08-30T00:02:02;70.49;66.26;72.86;;
71030;Laerm;63723;51.436;5.976;2023-08-30T00:02:12;70.56;65.43;73.10;;
71030;Laerm;63723;51.436;5.976;2023-08-30T00:02:22;70.10;65.02;72.81;;
71030;Laerm;63723;51.436;5.976;2023-08-30T00:02:33;70.10;65.24;73.51;;
71030;Laerm;63723;51.436;5.976;2023-08-30T00:02:44;70.71;66.21;73.56;;
71030;Laerm;63723;51.436;5.976;2023-08-30T00:02:54;70.56;64.59;73.67;;
71030;Laerm;63723;51.436;5.976;2023-08-30T00:03:04;70.32;64.60;72.97;;
71030;Laerm;63723;51.436;5.976;2023-08-30T00:03:16;70.71;67.63;73.86;;
71030;Laerm;63723;51.436;5.976;2023-08-30T00:03:26;70.70;65.65;73.58;;
71030;Laerm;63723;51.436;5.976;2023-08-30T00:03:36;70.74;66.34;73.54;;
71030;Laerm;63723;51.436;5.976;2023-08-30T00:03:47;70.03;65.72;72.93;;
71030;Laerm;63723;51.436;5.976;2023-08-30T00:03:57;70.42;64.30;73.42;;
71030;Laerm;63723;51.436;5.976;2023-08-30T00:04:07;70.53;66.32;73.35;;
71030;Laerm;63723;51.436;5.976;2023-08-30T00:04:17;70.29;65.78;73.62;;
71030;Laerm;63723;51.436;5.976;2023-08-30T00:04:28;70.56;66.01;73.52;;
71030;Laerm;63723;51.436;5.976;2023-08-30T00:04:38;71.01;65.91;75.03;;
71030;Laerm;63723;51.436;5.976;2023-08-30T00:04:49;73.63;70.93;75.28;;
71030;Laerm;63723;51.436;5.976;2023-08-30T00:04:59;73.71;69.86;75.85;;
71030;Laerm;63723;51.436;5.976;2023-08-30T00:05:10;73.31;67.33;75.21;;
71030;Laerm;63723;51.436;5.976;2023-08-30T00:05:20;70.41;66.10;73.62;;
71030;Laerm;63723;51.436;5.976;2023-08-30T00:05:30;70.35;65.59;73.82;;
71030;Laerm;63723;51.436;5.976;2023-08-30T00:05:41;69.91;64.93;73.03;;
71030;Laerm;63723;51.436;5.976;2023-08-30T00:05:51;70.42;66.50;73.77;;
71030;Laerm;63723;51.436;5.976;2023-08-30T00:06:02;70.45;65.68;73.47;;
71030;Laerm;63723;51.436;5.976;2023-08-30T00:06:12;70.40;60.00;73.06;;
71030;Laerm;63723;51.436;5.976;2023-08-30T00:06:23;70.37;64.56;73.31;;
71030;Laerm;63723;51.436;5.976;2023-08-30T00:06:33;70.58;66.24;73.02;;
71030;Laerm;63723;51.436;5.976;2023-08-30T00:06:43;70.45;64.27;73.38;;
71030;Laerm;63723;51.436;5.976;2023-08-30T00:06:53;70.42;66.80;73.81;;
71030;Laerm;63723;51.436;5.976;2023-08-30T00:07:04;70.34;65.72;72.96;;
71030;Laerm;63723;51.436;5.976;2023-08-30T00:07:14;69.95;62.90;73.09;;
71030;Laerm;63723;51.436;5.976;2023-08-30T00:07:24;70.09;66.28;72.92;;
71030;Laerm;63723;51.436;5.976;2023-08-30T00:07:34;69.86;64.48;72.60;;
71030;Laerm;63723;51.436;5.976;2023-08-30T00:07:45;69.51;65.16;72.39;;
71030;Laerm;63723;51.436;5.976;2023-08-30T00:07:55;70.21;64.98;73.14;;
71030;Laerm;63723;51.436;5.976;2023-08-30T00:08:06;70.40;62.75;73.33;;
71030;Laerm;63723;51.436;5.976;2023-08-30T00:08:16;70.27;61.74;73.08;;
71030;Laerm;63723;51.436;5.976;2023-08-30T00:08:30;70.19;64.18;73.49;;
71030;Laerm;63723;51.436;5.976;2023-08-30T00:08:40;69.46;62.98;73.02;;
71030;Laerm;63723;51.436;5.976;2023-08-30T00:08:50;69.67;63.16;72.45;;
71030;Laerm;63723;51.436;5.976;2023-08-30T00:09:00;69.57;63.83;73.23;;
71030;Laerm;63723;51.436;5.976;2023-08-30T00:09:11;69.82;63.86;72.41;;
71030;Laerm;63723;51.436;5.976;2023-08-30T00:09:23;69.88;58.83;72.96;;
71030;Laerm;63723;51.436;5.976;2023-08-30T00:09:33;69.80;59.01;72.90;;
71030;Laerm;63723;51.436;5.976;2023-08-30T00:09:46;69.91;63.90;72.60;;
71030;Laerm;63723;51.436;5.976;2023-08-30T00:09:57;70.26;65.55;73.60;;
71030;Laerm;63723;51.436;5.976;2023-08-30T00:10:07;70.09;65.62;73.62;;
71030;Laerm;63723;51.436;5.976;2023-08-30T00:10:20;70.29;61.68;72.97;;
71030;Laerm;63723;51.436;5.976;2023-08-30T00:10:30;70.15;65.80;73.11;;
71030;Laerm;63723;51.436;5.976;2023-08-30T00:10:41;70.23;63.02;73.62;;
71030;Laerm;63723;51.436;5.976;2023-08-30T00:10:52;70.07;63.26;73.39;;
71030;Laerm;63723;51.436;5.976;2023-08-30T00:11:03;70.24;65.02;73.69;;
71030;Laerm;63723;51.436;5.976;2023-08-30T00:11:14;70.54;63.91;73.41;;
71030;Laerm;63723;51.436;5.976;2023-08-30T00:11:24;70.44;63.54;73.41;;
71030;Laerm;63723;51.436;5.976;2023-08-30T00:11:35;70.21;64.22;73.90;;
71030;Laerm;63723;51.436;5.976;2023-08-30T00:11:45;70.45;62.69;73.78;;
71030;Laerm;63723;51.436;5.976;2023-08-30T00:11:55;70.47;66.15;73.06;;
71030;Laerm;63723;51.436;5.976;2023-08-30T00:12:06;70.04;64.00;72.53;;
71030;Laerm;63723;51.436;5.976;2023-08-30T00:12:16;70.11;65.38;72.64;;
71030;Laerm;63723;51.436;5.976;2023-08-30T00:12:26;70.15;64.81;72.87;;
71030;Laerm;63723;51.436;5.976;2023-08-30T00:12:36;66.96;55.04;73.65;;
71030;Laerm;63723;51.436;5.976;2023-08-30T00:12:47;67.47;55.12;72.19;;
71030;Laerm;63723;51.436;5.976;2023-08-30T00:12:57;70.11;62.97;73.16;;
71030;Laerm;63723;51.436;5.976;2023-08-30T00:13:07;70.15;64.02;72.97;;
71030;Laerm;63723;51.436;5.976;2023-08-30T00:13:17;69.89;63.19;73.11;;
71030;Laerm;63723;51.436;5.976;2023-08-30T00:13:31;70.61;64.22;73.42;;
71030;Laerm;63723;51.436;5.976;2023-08-30T00:13:42;69.96;64.96;73.16;;
71030;Laerm;63723;51.436;5.976;2023-08-30T00:13:52;70.48;63.64;73.60;;
71030;Laerm;63723;51.436;5.976;2023-08-30T00:14:03;70.55;65.67;73.51;;
71030;Laerm;63723;51.436;5.976;2023-08-30T00:14:15;69.90;58.47;73.36;;
71030;Laerm;63723;51.436;5.976;2023-08-30T00:14:25;58.94;55.70;62.58;;
71030;Laerm;63723;51.436;5.976;2023-08-30T00:14:36;68.25;57.47;72.49;;
71030;Laerm;63723;51.436;5.976;2023-08-30T00:14:46;70.66;66.73;73.72;;
71030;Laerm;63723;51.436;5.976;2023-08-30T00:14:56;70.29;63.80;73.54;;
71030;Laerm;63723;51.436;5.976;2023-08-30T00:15:07;69.50;62.87;72.67;;
71030;Laerm;63723;51.436;5.976;2023-08-30T00:15:17;70.06;62.38;73.79;;
71030;Laerm;63723;51.436;5.976;2023-08-30T00:15:27;70.30;64.20;72.90;;
71030;Laerm;63723;51.436;5.976;2023-08-30T00:15:38;70.45;61.65;73.05;;
71030;Laerm;63723;51.436;5.976;2023-08-30T00:15:48;70.28;64.11;73.40;;
71030;Laerm;63723;51.436;5.976;2023-08-30T00:15:58;70.09;64.11;72.98;;
71030;Laerm;63723;51.436;5.976;2023-08-30T00:16:09;70.61;66.02;73.79;;
71030;Laerm;63723;51.436;5.976;2023-08-30T00:16:19;70.51;66.51;73.26;;
71030;Laerm;63723;51.436;5.976;2023-08-30T00:16:29;70.58;66.02;73.32;;
71030;Laerm;63723;51.436;5.976;2023-08-30T00:16:40;70.62;65.55;73.05;;
71030;Laerm;63723;51.436;5.976;2023-08-30T00:16:50;70.59;64.39;73.12;;
71030;Laerm;63723;51.436;5.976;2023-08-30T00:17:00;70.32;63.95;73.04;;
71030;Laerm;63723;51.436;5.976;2023-08-30T00:17:10;70.65;67.05;73.31;;
71030;Laerm;63723;51.436;5.976;2023-08-30T00:17:21;70.55;65.80;73.14;;
71030;Laerm;63723;51.436;5.976;2023-08-30T00:17:31;70.78;65.34;73.57;;
71030;Laerm;63723;51.436;5.976;2023-08-30T00:17:41;70.34;64.74;73.11;;
71030;Laerm;63723;51.436;5.976;2023-08-30T00:17:52;70.83;67.01;74.26;;
71030;Laerm;63723;51.436;5.976;2023-08-30T00:18:02;70.86;66.13;73.63;;
71030;Laerm;63723;51.436;5.976;2023-08-30T00:18:12;70.94;66.85;73.54;;
71030;Laerm;63723;51.436;5.976;2023-08-30T00:18:23;70.79;64.17;74.06;;
71030;Laerm;63723;51.436;5.976;2023-08-30T00:18:33;70.85;64.60;73.63;;
71030;Laerm;63723;51.436;5.976;2023-08-30T00:18:44;70.61;63.88;73.47;;
71030;Laerm;63723;51.436;5.976;2023-08-30T00:18:55;70.86;65.60;73.77;;
71030;Laerm;63723;51.436;5.976;2023-08-30T00:19:05;70.56;56.07;73.11;;
71030;Laerm;63723;51.436;5.976;2023-08-30T00:19:16;70.88;66.62;73.69;;
71030;Laerm;63723;51.436;5.976;2023-08-30T00:19:26;71.15;66.65;73.60;;
71030;Laerm;63723;51.436;5.976;2023-08-30T00:19:36;71.16;67.22;74.17;;
71030;Laerm;63723;51.436;5.976;2023-08-30T00:19:46;71.23;67.70;73.57;;
71030;Laerm;63723;51.436;5.976;2023-08-30T00:19:58;71.23;66.80;73.76;;
71030;Laerm;63723;51.436;5.976;2023-08-30T00:20:09;71.35;67.25;74.46;;
71030;Laerm;63723;51.436;5.976;2023-08-30T00:20:20;71.46;67.76;74.02;;
71030;Laerm;63723;51.436;5.976;2023-08-30T00:20:31;71.95;67.33;74.56;;
71030;Laerm;63723;51.436;5.976;2023-08-30T00:20:41;70.74;67.40;73.62;;
71030;Laerm;63723;51.436;5.976;2023-08-30T00:20:51;71.27;67.22;73.96;;
71030;Laerm;63723;51.436;5.976;2023-08-30T00:21:02;71.28;66.89;73.74;;
71030;Laerm;63723;51.436;5.976;2023-08-30T00:21:12;71.22;67.43;74.52;;
71030;Laerm;63723;51.436;5.976;2023-08-30T00:21:22;71.13;67.00;73.55;;
71030;Laerm;63723;51.436;5.976;2023-08-30T00:21:32;70.59;65.86;73.77;;
71030;Laerm;63723;51.436;5.976;2023-08-30T00:21:43;70.74;64.53;74.10;;
71030;Laerm;63723;51.436;5.976;2023-08-30T00:21:54;71.24;67.39;73.85;;
71030;Laerm;63723;51.436;5.976;2023-08-30T00:22:04;71.26;66.23;74.37;;
71030;Laerm;63723;51.436;5.976;2023-08-30T00:22:17;71.26;64.38;73.75;;
71030;Laerm;63723;51.436;5.976;2023-08-30T00:22:27;71.21;67.30;73.72;;
71030;Laerm;63723;51.436;5.976;2023-08-30T00:22:38;71.08;67.16;73.97;;
71030;Laerm;63723;51.436;5.976;2023-08-30T00:22:49;70.62;66.68;73.89;;
71030;Laerm;63723;51.436;5.976;2023-08-30T00:23:00;70.92;65.96;73.71;;
71030;Laerm;63723;51.436;5.976;2023-08-30T00:23:10;70.66;65.83;73.73;;
71030;Laerm;63723;51.436;5.976;2023-08-30T00:23:20;71.07;62.51;74.11;;
71030;Laerm;63723;51.436;5.976;2023-08-30T00:23:30;70.95;64.79;74.58;;
71030;Laerm;63723;51.436;5.976;2023-08-30T00:23:41;70.69;66.21;73.86;;
71030;Laerm;63723;51.436;5.976;2023-08-30T00:23:51;71.06;65.53;74.00;;
71030;Laerm;63723;51.436;5.976;2023-08-30T00:24:02;70.83;64.17;73.96;;
71030;Laerm;63723;51.436;5.976;2023-08-30T00:24:12;70.86;62.59;73.99;;
71030;Laerm;63723;51.436;5.976;2023-08-30T00:24:22;70.84;63.70;74.17;;
71030;Laerm;63723;51.436;5.976;2023-08-30T00:24:33;70.85;64.33;73.55;;
71030;Laerm;63723;51.436;5.976;2023-08-30T00:24:44;70.84;65.00;74.32;;
71030;Laerm;63723;51.436;5.976;2023-08-30T00:24:55;70.76;65.18;73.38;;
71030;Laerm;63723;51.436;5.976;2023-08-30T00:25:05;70.68;64.25;73.70;;
71030;Laerm;63723;51.436;5.976;2023-08-30T00:25:15;70.64;65.36;73.21;;
71030;Laerm;63723;51.436;5.976;2023-08-30T00:25:26;70.71;63.72;73.46;;
71030;Laerm;63723;51.436;5.976;2023-08-30T00:25:36;70.61;65.29;73.61;;
71030;Laerm;63723;51.436;5.976;2023-08-30T00:25:46;70.67;64.72;73.72;;
71030;Laerm;63723;51.436;5.976;2023-08-30T00:25:57;70.64;66.02;73.84;;
71030;Laerm;63723;51.436;5.976;2023-08-30T00:26:07;70.64;64.96;73.63;;
71030;Laerm;63723;51.436;5.976;2023-08-30T00:26:17;70.89;64.80;73.97;;
71030;Laerm;63723;51.436;5.976;2023-08-30T00:26:27;70.55;58.09;74.10;;
71030;Laerm;63723;51.436;5.976;2023-08-30T00:26:38;70.55;59.29;73.98;;
71030;Laerm;63723;51.436;5.976;2023-08-30T00:26:48;70.85;64.39;74.08;;
71030;Laerm;63723;51.436;5.976;2023-08-30T00:26:58;70.79;65.92;74.06;;
71030;Laerm;63723;51.436;5.976;2023-08-30T00:27:08;70.69;63.40;73.77;;
71030;Laerm;63723;51.436;5.976;2023-08-30T00:27:19;70.03;65.28;73.12;;
71030;Laerm;63723;51.436;5.976;2023-08-30T00:27:30;70.55;62.24;74.34;;
71030;Laerm;63723;51.436;5.976;2023-08-30T00:27:40;70.80;66.02;73.88;;
71030;Laerm;63723;51.436;5.976;2023-08-30T00:27:51;69.96;63.64;72.94;;
71030;Laerm;63723;51.436;5.976;2023-08-30T00:28:01;70.52;65.59;73.35;;
71030;Laerm;63723;51.436;5.976;2023-08-30T00:28:12;70.79;64.96;74.29;;
71030;Laerm;63723;51.436;5.976;2023-08-30T00:28:22;70.12;63.21;73.54;;
71030;Laerm;63723;51.436;5.976;2023-08-30T00:28:32;70.68;63.69;74.36;;
71030;Laerm;63723;51.436;5.976;2023-08-30T00:28:43;70.83;65.37;74.49;;
71030;Laerm;63723;51.436;5.976;2023-08-30T00:28:53;70.87;62.79;73.82;;
71030;Laerm;63723;51.436;5.976;2023-08-30T00:29:03;70.62;62.84;73.38;;
71030;Laerm;63723;51.436;5.976;2023-08-30T00:29:13;70.44;63.92;73.61;;
71030;Laerm;63723;51.436;5.976;2023-08-30T00:29:24;70.33;65.37;73.42;;
71030;Laerm;63723;51.436;5.976;2023-08-30T00:29:34;70.56;59.79;73.77;;
71030;Laerm;63723;51.436;5.976;2023-08-30T00:29:44;70.51;65.31;73.54;;
71030;Laerm;63723;51.436;5.976;2023-08-30T00:29:54;70.25;63.23;73.64;;
71030;Laerm;63723;51.436;5.976;2023-08-30T00:30:05;70.37;64.22;73.52;;
71030;Laerm;63723;51.436;5.976;2023-08-30T00:30:15;70.20;60.57;73.54;;
71030;Laerm;63723;51.436;5.976;2023-08-30T00:30:25;70.26;64.32;73.11;;
71030;Laerm;63723;51.436;5.976;2023-08-30T00:30:36;70.13;60.88;73.06;;
71030;Laerm;63723;51.436;5.976;2023-08-30T00:30:46;70.52;63.04;73.61;;
71030;Laerm;63723;51.436;5.976;2023-08-30T00:30:56;70.38;63.95;74.13;;
71030;Laerm;63723;51.436;5.976;2023-08-30T00:31:06;70.43;62.30;73.94;;
71030;Laerm;63723;51.436;5.976;2023-08-30T00:31:17;70.46;63.84;74.19;;
71030;Laerm;63723;51.436;5.976;2023-08-30T00:31:27;70.15;62.00;73.73;;
71030;Laerm;63723;51.436;5.976;2023-08-30T00:31:37;70.08;62.75;73.53;;
71030;Laerm;63723;51.436;5.976;2023-08-30T00:31:48;70.03;64.29;73.11;;
71030;Laerm;63723;51.436;5.976;2023-08-30T00:31:58;69.90;62.26;73.32;;
71030;Laerm;63723;51.436;5.976;2023-08-30T00:32:08;69.71;64.85;72.89;;
71030;Laerm;63723;51.436;5.976;2023-08-30T00:32:18;69.68;63.25;72.94;;
71030;Laerm;63723;51.436;5.976;2023-08-30T00:32:28;69.58;63.39;72.66;;
71030;Laerm;63723;51.436;5.976;2023-08-30T00:32:39;69.76;63.33;72.86;;
71030;Laerm;63723;51.436;5.976;2023-08-30T00:32:49;69.79;62.18;72.76;;
71030;Laerm;63723;51.436;5.976;2023-08-30T00:32:59;69.97;63.79;73.49;;
71030;Laerm;63723;51.436;5.976;2023-08-30T00:33:10;61.03;58.53;69.03;;
71030;Laerm;63723;51.436;5.976;2023-08-30T00:33:20;68.66;58.16;72.67;;
71030;Laerm;63723;51.436;5.976;2023-08-30T00:33:30;69.64;62.32;72.84;;
71030;Laerm;63723;51.436;5.976;2023-08-30T00:33:40;69.84;60.38;73.25;;
71030;Laerm;63723;51.436;5.976;2023-08-30T00:33:51;69.77;61.04;72.85;;
71030;Laerm;63723;51.436;5.976;2023-08-30T00:34:01;69.85;63.47;73.26;;
71030;Laerm;63723;51.436;5.976;2023-08-30T00:34:11;69.68;62.26;72.97;;
71030;Laerm;63723;51.436;5.976;2023-08-30T00:34:22;69.59;63.06;72.64;;
71030;Laerm;63723;51.436;5.976;2023-08-30T00:34:32;69.66;61.59;73.03;;
71030;Laerm;63723;51.436;5.976;2023-08-30T00:34:42;69.47;63.35;72.69;;
71030;Laerm;63723;51.436;5.976;2023-08-30T00:34:53;69.25;62.81;72.24;;
71030;Laerm;63723;51.436;5.976;2023-08-30T00:35:03;69.53;63.26;73.86;;
71030;Laerm;63723;51.436;5.976;2023-08-30T00:35:13;69.27;63.18;72.67;;
71030;Laerm;63723;51.436;5.976;2023-08-30T00:35:23;69.38;62.12;73.00;;
71030;Laerm;63723;51.436;5.976;2023-08-30T00:35:34;69.28;63.47;73.08;;
71030;Laerm;63723;51.436;5.976;2023-08-30T00:35:44;69.17;61.21;72.47;;
71030;Laerm;63723;51.436;5.976;2023-08-30T00:35:55;69.18;63.02;72.03;;
71030;Laerm;63723;51.436;5.976;2023-08-30T00:36:05;69.05;63.23;71.98;;
71030;Laerm;63723;51.436;5.976;2023-08-30T00:36:15;69.04;63.63;72.25;;
71030;Laerm;63723;51.436;5.976;2023-08-30T00:36:28;69.14;63.44;72.37;;
71030;Laerm;63723;51.436;5.976;2023-08-30T00:36:38;68.98;63.13;71.92;;
71030;Laerm;63723;51.436;5.976;2023-08-30T00:36:48;68.88;63.79;72.35;;
71030;Laerm;63723;51.436;5.976;2023-08-30T00:36:59;68.93;63.59;72.14;;
71030;Laerm;63723;51.436;5.976;2023-08-30T00:37:09;68.88;63.23;72.61;;
71030;Laerm;63723;51.436;5.976;2023-08-30T00:37:19;68.83;62.98;72.98;;
71030;Laerm;63723;51.436;5.976;2023-08-30T00:37:30;69.04;63.03;72.74;;
71030;Laerm;63723;51.436;5.976;2023-08-30T00:37:40;68.74;62.15;72.27;;
71030;Laerm;63723;51.436;5.976;2023-08-30T00:37:50;68.64;61.57;72.35;;
71030;Laerm;63723;51.436;5.976;2023-08-30T00:38:00;68.60;62.92;72.43;;
71030;Laerm;63723;51.436;5.976;2023-08-30T00:38:11;68.45;63.20;72.16;;
71030;Laerm;63723;51.436;5.976;2023-08-30T00:38:21;68.49;61.06;73.38;;
71030;Laerm;63723;51.436;5.976;2023-08-30T00:38:32;68.34;63.00;71.54;;
71030;Laerm;63723;51.436;5.976;2023-08-30T00:38:43;68.31;62.49;71.97;;
71030;Laerm;63723;51.436;5.976;2023-08-30T00:38:53;68.16;61.52;72.40;;
71030;Laerm;63723;51.436;5.976;2023-08-30T00:39:03;68.28;61.68;71.61;;
71030;Laerm;63723;51.436;5.976;2023-08-30T00:39:14;68.35;62.59;71.63;;
71030;Laerm;63723;51.436;5.976;2023-08-30T00:39:24;68.30;63.07;72.00;;
71030;Laerm;63723;51.436;5.976;2023-08-30T00:39:37;67.38;61.22;71.51;;
71030;Laerm;63723;51.436;5.976;2023-08-30T00:39:47;67.78;61.42;71.75;;
71030;Laerm;63723;51.436;5.976;2023-08-30T00:39:57;68.08;62.97;72.40;;
71030;Laerm;63723;51.436;5.976;2023-08-30T00:40:09;67.33;61.50;70.90;;
71030;Laerm;63723;51.436;5.976;2023-08-30T00:40:23;67.27;61.47;70.28;;
71030;Laerm;63723;51.436;5.976;2023-08-30T00:40:39;67.66;62.21;71.52;;
71030;Laerm;63723;51.436;5.976;2023-08-30T00:40:49;68.20;60.36;71.64;;
71030;Laerm;63723;51.436;5.976;2023-08-30T00:41:00;67.98;60.92;72.00;;
71030;Laerm;63723;51.436;5.976;2023-08-30T00:41:10;68.02;61.86;71.34;;
71030;Laerm;63723;51.436;5.976;2023-08-30T00:41:20;68.30;60.41;73.17;;
71030;Laerm;63723;51.436;5.976;2023-08-30T00:41:30;68.12;62.21;72.87;;
71030;Laerm;63723;51.436;5.976;2023-08-30T00:41:41;68.03;61.09;71.84;;
71030;Laerm;63723;51.436;5.976;2023-08-30T00:41:51;67.77;60.58;72.45;;
71030;Laerm;63723;51.436;5.976;2023-08-30T00:42:01;67.30;61.58;70.85;;
71030;Laerm;63723;51.436;5.976;2023-08-30T00:42:15;68.07;62.47;71.87;;
71030;Laerm;63723;51.436;5.976;2023-08-30T00:42:26;68.23;59.71;71.70;;
71030;Laerm;63723;51.436;5.976;2023-08-30T00:42:37;68.06;63.04;71.47;;
71030;Laerm;63723;51.436;5.976;2023-08-30T00:42:47;67.95;63.06;71.59;;
71030;Laerm;63723;51.436;5.976;2023-08-30T00:42:57;67.93;62.38;71.72;;
71030;Laerm;63723;51.436;5.976;2023-08-30T00:43:08;67.52;62.83;71.55;;
71030;Laerm;63723;51.436;5.976;2023-08-30T00:43:19;68.10;62.79;71.23;;
71030;Laerm;63723;51.436;5.976;2023-08-30T00:43:29;67.68;63.09;71.33;;
71030;Laerm;63723;51.436;5.976;2023-08-30T00:43:39;67.82;62.24;71.55;;
71030;Laerm;63723;51.436;5.976;2023-08-30T00:43:49;68.03;63.12;71.92;;
71030;Laerm;63723;51.436;5.976;2023-08-30T00:44:00;67.77;61.34;71.39;;
71030;Laerm;63723;51.436;5.976;2023-08-30T00:44:10;68.00;59.10;71.70;;
71030;Laerm;63723;51.436;5.976;2023-08-30T00:44:20;67.66;62.39;71.57;;
71030;Laerm;63723;51.436;5.976;2023-08-30T00:44:30;67.66;62.42;71.40;;
71030;Laerm;63723;51.436;5.976;2023-08-30T00:44:41;68.02;62.38;71.43;;
71030;Laerm;63723;51.436;5.976;2023-08-30T00:44:51;68.02;62.74;71.58;;
71030;Laerm;63723;51.436;5.976;2023-08-30T00:45:01;68.02;62.93;71.48;;
71030;Laerm;63723;51.436;5.976;2023-08-30T00:45:12;67.23;62.13;72.35;;
71030;Laerm;63723;51.436;5.976;2023-08-30T00:45:22;68.03;62.76;71.73;;
71030;Laerm;63723;51.436;5.976;2023-08-30T00:45:33;68.08;62.35;71.66;;
71030;Laerm;63723;51.436;5.976;2023-08-30T00:45:44;67.87;60.52;71.53;;
71030;Laerm;63723;51.436;5.976;2023-08-30T00:45:55;67.70;62.42;71.18;;
71030;Laerm;63723;51.436;5.976;2023-08-30T00:46:05;67.84;62.74;70.97;;
71030;Laerm;63723;51.436;5.976;2023-08-30T00:46:15;67.91;62.65;72.05;;
71030;Laerm;63723;51.436;5.976;2023-08-30T00:46:26;67.76;61.11;72.48;;
71030;Laerm;63723;51.436;5.976;2023-08-30T00:46:37;67.88;61.43;70.92;;
71030;Laerm;63723;51.436;5.976;2023-08-30T00:46:47;67.71;61.47;72.44;;
71030;Laerm;63723;51.436;5.976;2023-08-30T00:46:58;67.65;62.01;71.94;;
71030;Laerm;63723;51.436;5.976;2023-08-30T00:47:08;67.84;62.42;72.29;;
71030;Laerm;63723;51.436;5.976;2023-08-30T00:47:19;67.29;61.27;71.04;;
71030;Laerm;63723;51.436;5.976;2023-08-30T00:47:29;67.03;60.10;71.37;;
71030;Laerm;63723;51.436;5.976;2023-08-30T00:47:40;67.04;61.23;71.02;;
71030;Laerm;63723;51.436;5.976;2023-08-30T00:47:50;67.40;60.14;71.62;;
71030;Laerm;63723;51.436;5.976;2023-08-30T00:48:00;66.74;61.13;71.40;;
71030;Laerm;63723;51.436;5.976;2023-08-30T00:48:11;67.68;61.91;71.37;;
71030;Laerm;63723;51.436;5.976;2023-08-30T00:48:21;67.70;62.79;71.29;;
71030;Laerm;63723;51.436;5.976;2023-08-30T00:48:32;67.70;62.03;70.77;;
71030;Laerm;63723;51.436;5.976;2023-08-30T00:48:43;67.33;61.92;70.98;;
71030;Laerm;63723;51.436;5.976;2023-08-30T00:48:53;67.70;60.55;71.12;;
71030;Laerm;63723;51.436;5.976;2023-08-30T00:49:04;67.44;62.62;70.65;;
71030;Laerm;63723;51.436;5.976;2023-08-30T00:49:14;67.49;62.89;71.73;;
71030;Laerm;63723;51.436;5.976;2023-08-30T00:49:24;67.65;62.23;70.83;;
71030;Laerm;63723;51.436;5.976;2023-08-30T00:49:35;67.49;61.25;71.20;;
71030;Laerm;63723;51.436;5.976;2023-08-30T00:49:45;67.58;61.49;70.58;;
71030;Laerm;63723;51.436;5.976;2023-08-30T00:49:55;66.51;61.43;71.85;;
71030;Laerm;63723;51.436;5.976;2023-08-30T00:50:06;67.00;60.72;71.79;;
71030;Laerm;63723;51.436;5.976;2023-08-30T00:50:16;67.72;63.27;71.38;;
71030;Laerm;63723;51.436;5.976;2023-08-30T00:50:26;67.82;60.91;71.75;;
71030;Laerm;63723;51.436;5.976;2023-08-30T00:50:37;67.58;62.65;71.55;;
71030;Laerm;63723;51.436;5.976;2023-08-30T00:50:48;67.73;62.36;72.32;;
71030;Laerm;63723;51.436;5.976;2023-08-30T00:50:58;67.66;60.70;71.01;;
71030;Laerm;63723;51.436;5.976;2023-08-30T00:51:08;67.45;63.04;71.19;;
71030;Laerm;63723;51.436;5.976;2023-08-30T00:51:19;67.52;60.73;71.76;;
71030;Laerm;63723;51.436;5.976;2023-08-30T00:51:29;67.49;61.07;70.85;;
71030;Laerm;63723;51.436;5.976;2023-08-30T00:51:40;67.63;62.76;71.51;;
71030;Laerm;63723;51.436;5.976;2023-08-30T00:51:50;67.75;62.80;71.13;;
71030;Laerm;63723;51.436;5.976;2023-08-30T00:52:02;67.75;62.70;71.50;;
71030;Laerm;63723;51.436;5.976;2023-08-30T00:52:13;67.71;62.50;71.52;;
71030;Laerm;63723;51.436;5.976;2023-08-30T00:52:24;67.59;62.72;72.09;;
71030;Laerm;63723;51.436;5.976;2023-08-30T00:52:34;67.67;62.27;71.43;;
71030;Laerm;63723;51.436;5.976;2023-08-30T00:52:44;67.35;62.34;71.09;;
71030;Laerm;63723;51.436;5.976;2023-08-30T00:52:55;67.45;63.14;70.96;;
71030;Laerm;63723;51.436;5.976;2023-08-30T00:53:05;67.78;62.25;71.13;;
71030;Laerm;63723;51.436;5.976;2023-08-30T00:53:16;67.75;62.31;71.35;;
71030;Laerm;63723;51.436;5.976;2023-08-30T00:53:27;67.41;60.98;71.59;;
71030;Laerm;63723;51.436;5.976;2023-08-30T00:53:37;67.52;62.44;71.99;;
71030;Laerm;63723;51.436;5.976;2023-08-30T00:53:48;67.93;62.53;71.50;;
71030;Laerm;63723;51.436;5.976;2023-08-30T00:53:59;65.21;56.72;70.60;;
71030;Laerm;63723;51.436;5.976;2023-08-30T00:54:10;66.73;57.99;70.98;;
71030;Laerm;63723;51.436;5.976;2023-08-30T00:54:20;67.59;61.57;71.04;;
71030;Laerm;63723;51.436;5.976;2023-08-30T00:54:31;67.40;61.05;70.87;;
71030;Laerm;63723;51.436;5.976;2023-08-30T00:54:41;67.03;62.21;70.86;;
71030;Laerm;63723;51.436;5.976;2023-08-30T00:54:52;67.54;61.28;71.00;;
71030;Laerm;63723;51.436;5.976;2023-08-30T00:55:03;67.40;61.33;72.08;;
71030;Laerm;63723;51.436;5.976;2023-08-30T00:55:13;67.35;61.26;71.44;;
71030;Laerm;63723;51.436;5.976;2023-08-30T00:55:25;67.44;61.28;71.58;;
71030;Laerm;63723;51.436;5.976;2023-08-30T00:55:35;67.19;62.29;70.60;;
71030;Laerm;63723;51.436;5.976;2023-08-30T00:55:46;66.85;61.07;70.95;;
71030;Laerm;63723;51.436;5.976;2023-08-30T00:55:57;67.56;61.27;71.86;;
71030;Laerm;63723;51.436;5.976;2023-08-30T00:56:07;67.66;62.98;71.49;;
71030;Laerm;63723;51.436;5.976;2023-08-30T00:56:17;67.40;62.20;71.29;;
71030;Laerm;63723;51.436;5.976;2023-08-30T00:56:28;66.92;62.23;70.23;;
71030;Laerm;63723;51.436;5.976;2023-08-30T00:56:39;67.73;62.07;72.12;;
71030;Laerm;63723;51.436;5.976;2023-08-30T00:56:50;67.64;59.02;72.52;;
71030;Laerm;63723;51.436;5.976;2023-08-30T00:57:01;67.96;63.01;71.20;;
71030;Laerm;63723;51.436;5.976;2023-08-30T00:57:11;67.68;62.20;71.18;;
71030;Laerm;63723;51.436;5.976;2023-08-30T00:57:22;67.36;61.03;71.36;;
71030;Laerm;63723;51.436;5.976;2023-08-30T00:57:32;67.53;63.33;71.20;;
71030;Laerm;63723;51.436;5.976;2023-08-30T00:57:43;67.39;60.98;70.79;;
71030;Laerm;63723;51.436;5.976;2023-08-30T00:57:53;67.73;61.42;70.84;;
71030;Laerm;63723;51.436;5.976;2023-08-30T00:58:03;67.62;62.25;70.94;;
71030;Laerm;63723;51.436;5.976;2023-08-30T00:58:14;67.05;61.20;70.36;;
71030;Laerm;63723;51.436;5.976;2023-08-30T00:58:24;67.41;63.12;71.70;;
71030;Laerm;63723;51.436;5.976;2023-08-30T00:58:37;67.28;57.59;71.40;;
71030;Laerm;63723;51.436;5.976;2023-08-30T00:58:47;67.17;58.85;70.66;;
71030;Laerm;63723;51.436;5.976;2023-08-30T00:58:58;67.63;62.81;72.14;;